<?xml version="1.0" encoding="UTF-8" standalone="no" ?>
<gpx xmlns="http://www.topografix.com/GPX/1/1" xmlns:xsi="http://www.w3.org/2001/XMLSchema-instance" xsi:schemaLocation="http://www.topografix.com/GPX/1/1 http://www.topografix.com/GPX/1/1/gpx.xsd" version="1.1" creator="VisuGPX - https://www.visugpx.com">
  <metadata>
    <name>boucle du pic du gar</name>
    <desc><![CDATA[boucle deu pic du gar
depart de Bezins garraux
passage par le col de caube]]></desc>
  </metadata>
  <wpt lat="42.93283" lon="0.69705">
    <ele>733</ele>
    <name><![CDATA[Bezins Garraux]]></name>
    <desc><![CDATA[19-MAI-09 17:05:33]]></desc>
    <cmt><![CDATA[19-MAI-09 17:05:33]]></cmt>
  </wpt>
  <wpt lat="42.95024" lon="0.6987">
    <ele>1792</ele>
    <name><![CDATA[Pic de Gar]]></name>
    <desc><![CDATA[19-MAI-09 12:33:48]]></desc>
    <cmt><![CDATA[19-MAI-09 12:33:48]]></cmt>
  </wpt>
  <trk>
    <name><![CDATA[ACTIVE LOG 001]]></name>
    <trkseg>
      <trkpt lat="42.9329" lon="0.69705">
        <ele>733.623291</ele>
        <time>2009-05-19T07:35:26Z</time>
      </trkpt>
      <trkpt lat="42.93286" lon="0.69706">
        <ele>733.623291</ele>
        <time>2009-05-19T07:35:49Z</time>
      </trkpt>
      <trkpt lat="42.93287" lon="0.69706">
        <ele>731.7004395</ele>
        <time>2009-05-19T07:36:09Z</time>
      </trkpt>
      <trkpt lat="42.93286" lon="0.69705">
        <ele>732.6621094</ele>
        <time>2009-05-19T07:36:21Z</time>
      </trkpt>
      <trkpt lat="42.93288" lon="0.69706">
        <ele>734.1040039</ele>
        <time>2009-05-19T07:36:46Z</time>
      </trkpt>
      <trkpt lat="42.9329" lon="0.69706">
        <ele>733.1425781</ele>
        <time>2009-05-19T07:37:15Z</time>
      </trkpt>
      <trkpt lat="42.93291" lon="0.69706">
        <ele>734.1040039</ele>
        <time>2009-05-19T07:37:43Z</time>
      </trkpt>
      <trkpt lat="42.93291" lon="0.69706">
        <ele>734.1040039</ele>
        <time>2009-05-19T07:38:01Z</time>
      </trkpt>
      <trkpt lat="42.93288" lon="0.69705">
        <ele>734.1040039</ele>
        <time>2009-05-19T07:38:19Z</time>
      </trkpt>
      <trkpt lat="42.93287" lon="0.69706">
        <ele>732.6621094</ele>
        <time>2009-05-19T07:38:32Z</time>
      </trkpt>
      <trkpt lat="42.93292" lon="0.69708">
        <ele>733.1425781</ele>
        <time>2009-05-19T07:38:58Z</time>
      </trkpt>
      <trkpt lat="42.93291" lon="0.69706">
        <ele>732.6621094</ele>
        <time>2009-05-19T07:39:28Z</time>
      </trkpt>
      <trkpt lat="42.9329" lon="0.69706">
        <ele>732.1813965</ele>
        <time>2009-05-19T07:39:38Z</time>
      </trkpt>
      <trkpt lat="42.93294" lon="0.69699">
        <ele>733.623291</ele>
        <time>2009-05-19T07:39:48Z</time>
      </trkpt>
      <trkpt lat="42.93302" lon="0.69701">
        <ele>731.7004395</ele>
        <time>2009-05-19T07:40:01Z</time>
      </trkpt>
      <trkpt lat="42.93305" lon="0.697">
        <ele>731.2199707</ele>
        <time>2009-05-19T07:40:22Z</time>
      </trkpt>
      <trkpt lat="42.93307" lon="0.69698">
        <ele>736.0266113</ele>
        <time>2009-05-19T07:40:33Z</time>
      </trkpt>
      <trkpt lat="42.93298" lon="0.69688">
        <ele>732.6621094</ele>
        <time>2009-05-19T07:41:03Z</time>
      </trkpt>
      <trkpt lat="42.93294" lon="0.69679">
        <ele>731.2199707</ele>
        <time>2009-05-19T07:41:16Z</time>
      </trkpt>
      <trkpt lat="42.93296" lon="0.69672">
        <ele>731.7004395</ele>
        <time>2009-05-19T07:41:31Z</time>
      </trkpt>
      <trkpt lat="42.93298" lon="0.69683">
        <ele>727.8552246</ele>
        <time>2009-05-19T07:41:44Z</time>
      </trkpt>
      <trkpt lat="42.93308" lon="0.69703">
        <ele>728.8166504</ele>
        <time>2009-05-19T07:42:02Z</time>
      </trkpt>
      <trkpt lat="42.93308" lon="0.69701">
        <ele>735.5458984</ele>
        <time>2009-05-19T07:42:14Z</time>
      </trkpt>
      <trkpt lat="42.9331" lon="0.69702">
        <ele>730.2585449</ele>
        <time>2009-05-19T07:42:49Z</time>
      </trkpt>
      <trkpt lat="42.93311" lon="0.69704">
        <ele>725.9326172</ele>
        <time>2009-05-19T07:43:26Z</time>
      </trkpt>
      <trkpt lat="42.93316" lon="0.69708">
        <ele>730.2585449</ele>
        <time>2009-05-19T07:43:42Z</time>
      </trkpt>
      <trkpt lat="42.93326" lon="0.69724">
        <ele>731.7004395</ele>
        <time>2009-05-19T07:44:01Z</time>
      </trkpt>
      <trkpt lat="42.93328" lon="0.69732">
        <ele>733.1425781</ele>
        <time>2009-05-19T07:44:39Z</time>
      </trkpt>
      <trkpt lat="42.93336" lon="0.69737">
        <ele>733.623291</ele>
        <time>2009-05-19T07:44:48Z</time>
      </trkpt>
      <trkpt lat="42.93352" lon="0.69748">
        <ele>733.623291</ele>
        <time>2009-05-19T07:45:03Z</time>
      </trkpt>
      <trkpt lat="42.93362" lon="0.69757">
        <ele>735.5458984</ele>
        <time>2009-05-19T07:45:15Z</time>
      </trkpt>
      <trkpt lat="42.93364" lon="0.6976">
        <ele>736.0266113</ele>
        <time>2009-05-19T07:45:18Z</time>
      </trkpt>
      <trkpt lat="42.9337" lon="0.69771">
        <ele>733.1425781</ele>
        <time>2009-05-19T07:45:26Z</time>
      </trkpt>
      <trkpt lat="42.93373" lon="0.69773">
        <ele>733.623291</ele>
        <time>2009-05-19T07:45:29Z</time>
      </trkpt>
      <trkpt lat="42.93384" lon="0.69788">
        <ele>737.9492188</ele>
        <time>2009-05-19T07:45:43Z</time>
      </trkpt>
      <trkpt lat="42.93397" lon="0.69803">
        <ele>736.5073242</ele>
        <time>2009-05-19T07:45:58Z</time>
      </trkpt>
      <trkpt lat="42.93406" lon="0.69813">
        <ele>736.5073242</ele>
        <time>2009-05-19T07:46:11Z</time>
      </trkpt>
      <trkpt lat="42.93417" lon="0.69826">
        <ele>739.3911133</ele>
        <time>2009-05-19T07:46:26Z</time>
      </trkpt>
      <trkpt lat="42.93425" lon="0.69841">
        <ele>743.2363281</ele>
        <time>2009-05-19T07:46:40Z</time>
      </trkpt>
      <trkpt lat="42.93433" lon="0.6985">
        <ele>745.6396484</ele>
        <time>2009-05-19T07:46:53Z</time>
      </trkpt>
      <trkpt lat="42.93439" lon="0.69848">
        <ele>749.4851074</ele>
        <time>2009-05-19T07:47:06Z</time>
      </trkpt>
      <trkpt lat="42.93433" lon="0.69834">
        <ele>750.927002</ele>
        <time>2009-05-19T07:47:18Z</time>
      </trkpt>
      <trkpt lat="42.93428" lon="0.6982">
        <ele>754.291748</ele>
        <time>2009-05-19T07:47:31Z</time>
      </trkpt>
      <trkpt lat="42.93423" lon="0.69807">
        <ele>756.6948242</ele>
        <time>2009-05-19T07:47:44Z</time>
      </trkpt>
      <trkpt lat="42.9342" lon="0.69797">
        <ele>758.1369629</ele>
        <time>2009-05-19T07:47:54Z</time>
      </trkpt>
      <trkpt lat="42.93417" lon="0.69778">
        <ele>760.0593262</ele>
        <time>2009-05-19T07:48:10Z</time>
      </trkpt>
      <trkpt lat="42.93417" lon="0.69769">
        <ele>759.5788574</ele>
        <time>2009-05-19T07:48:14Z</time>
      </trkpt>
      <trkpt lat="42.93414" lon="0.6975">
        <ele>768.7114258</ele>
        <time>2009-05-19T07:48:28Z</time>
      </trkpt>
      <trkpt lat="42.93417" lon="0.69736">
        <ele>761.9821777</ele>
        <time>2009-05-19T07:48:40Z</time>
      </trkpt>
      <trkpt lat="42.93417" lon="0.6972">
        <ele>766.7888184</ele>
        <time>2009-05-19T07:48:51Z</time>
      </trkpt>
      <trkpt lat="42.93418" lon="0.69718">
        <ele>765.8276367</ele>
        <time>2009-05-19T07:48:52Z</time>
      </trkpt>
      <trkpt lat="42.93417" lon="0.69713">
        <ele>762.4626465</ele>
        <time>2009-05-19T07:48:59Z</time>
      </trkpt>
      <trkpt lat="42.93417" lon="0.69704">
        <ele>761.9821777</ele>
        <time>2009-05-19T07:49:06Z</time>
      </trkpt>
      <trkpt lat="42.93417" lon="0.69698">
        <ele>762.9433594</ele>
        <time>2009-05-19T07:49:09Z</time>
      </trkpt>
      <trkpt lat="42.93416" lon="0.69672">
        <ele>764.8662109</ele>
        <time>2009-05-19T07:49:29Z</time>
      </trkpt>
      <trkpt lat="42.93418" lon="0.6965">
        <ele>766.3081055</ele>
        <time>2009-05-19T07:49:48Z</time>
      </trkpt>
      <trkpt lat="42.93418" lon="0.69632">
        <ele>770.1533203</ele>
        <time>2009-05-19T07:50:05Z</time>
      </trkpt>
      <trkpt lat="42.93417" lon="0.69623">
        <ele>773.0373535</ele>
        <time>2009-05-19T07:50:18Z</time>
      </trkpt>
      <trkpt lat="42.93415" lon="0.69621">
        <ele>776.4018555</ele>
        <time>2009-05-19T07:50:38Z</time>
      </trkpt>
      <trkpt lat="42.93417" lon="0.69621">
        <ele>771.1147461</ele>
        <time>2009-05-19T07:51:56Z</time>
      </trkpt>
      <trkpt lat="42.93422" lon="0.69618">
        <ele>763.904541</ele>
        <time>2009-05-19T07:53:21Z</time>
      </trkpt>
      <trkpt lat="42.93422" lon="0.69618">
        <ele>764.8662109</ele>
        <time>2009-05-19T07:53:22Z</time>
      </trkpt>
      <trkpt lat="42.93418" lon="0.69621">
        <ele>768.2307129</ele>
        <time>2009-05-19T07:53:29Z</time>
      </trkpt>
      <trkpt lat="42.93423" lon="0.69627">
        <ele>771.5952148</ele>
        <time>2009-05-19T07:53:36Z</time>
      </trkpt>
      <trkpt lat="42.93421" lon="0.69636">
        <ele>777.3632813</ele>
        <time>2009-05-19T07:53:45Z</time>
      </trkpt>
      <trkpt lat="42.93421" lon="0.69634">
        <ele>778.3244629</ele>
        <time>2009-05-19T07:53:47Z</time>
      </trkpt>
      <trkpt lat="42.93425" lon="0.69661">
        <ele>783.6118164</ele>
        <time>2009-05-19T07:54:03Z</time>
      </trkpt>
      <trkpt lat="42.93432" lon="0.69692">
        <ele>783.6118164</ele>
        <time>2009-05-19T07:54:22Z</time>
      </trkpt>
      <trkpt lat="42.93437" lon="0.69719">
        <ele>786.0151367</ele>
        <time>2009-05-19T07:54:40Z</time>
      </trkpt>
      <trkpt lat="42.93444" lon="0.69732">
        <ele>791.3022461</ele>
        <time>2009-05-19T07:54:57Z</time>
      </trkpt>
      <trkpt lat="42.93443" lon="0.6972">
        <ele>791.3022461</ele>
        <time>2009-05-19T07:55:08Z</time>
      </trkpt>
      <trkpt lat="42.93444" lon="0.697">
        <ele>795.6281738</ele>
        <time>2009-05-19T07:55:27Z</time>
      </trkpt>
      <trkpt lat="42.93446" lon="0.69682">
        <ele>799.4736328</ele>
        <time>2009-05-19T07:55:42Z</time>
      </trkpt>
      <trkpt lat="42.93446" lon="0.69665">
        <ele>804.2802734</ele>
        <time>2009-05-19T07:55:57Z</time>
      </trkpt>
      <trkpt lat="42.93448" lon="0.69651">
        <ele>804.7607422</ele>
        <time>2009-05-19T07:56:09Z</time>
      </trkpt>
      <trkpt lat="42.9345" lon="0.69636">
        <ele>806.6833496</ele>
        <time>2009-05-19T07:56:22Z</time>
      </trkpt>
      <trkpt lat="42.93451" lon="0.69625">
        <ele>810.0478516</ele>
        <time>2009-05-19T07:56:34Z</time>
      </trkpt>
      <trkpt lat="42.93454" lon="0.69615">
        <ele>812.9321289</ele>
        <time>2009-05-19T07:56:48Z</time>
      </trkpt>
      <trkpt lat="42.93454" lon="0.69603">
        <ele>820.6225586</ele>
        <time>2009-05-19T07:57:02Z</time>
      </trkpt>
      <trkpt lat="42.93457" lon="0.69585">
        <ele>818.2192383</ele>
        <time>2009-05-19T07:57:15Z</time>
      </trkpt>
      <trkpt lat="42.93458" lon="0.69568">
        <ele>822.545166</ele>
        <time>2009-05-19T07:57:30Z</time>
      </trkpt>
      <trkpt lat="42.93459" lon="0.69558">
        <ele>826.8710938</ele>
        <time>2009-05-19T07:57:41Z</time>
      </trkpt>
      <trkpt lat="42.93463" lon="0.69546">
        <ele>827.3518066</ele>
        <time>2009-05-19T07:57:53Z</time>
      </trkpt>
      <trkpt lat="42.93465" lon="0.69537">
        <ele>831.6777344</ele>
        <time>2009-05-19T07:58:03Z</time>
      </trkpt>
      <trkpt lat="42.93472" lon="0.69518">
        <ele>831.6777344</ele>
        <time>2009-05-19T07:58:19Z</time>
      </trkpt>
      <trkpt lat="42.9348" lon="0.69499">
        <ele>833.6003418</ele>
        <time>2009-05-19T07:58:36Z</time>
      </trkpt>
      <trkpt lat="42.93489" lon="0.69479">
        <ele>835.5229492</ele>
        <time>2009-05-19T07:58:54Z</time>
      </trkpt>
      <trkpt lat="42.93497" lon="0.69466">
        <ele>837.9262695</ele>
        <time>2009-05-19T07:59:08Z</time>
      </trkpt>
      <trkpt lat="42.93505" lon="0.69456">
        <ele>837.4455566</ele>
        <time>2009-05-19T07:59:20Z</time>
      </trkpt>
      <trkpt lat="42.93512" lon="0.69445">
        <ele>841.2907715</ele>
        <time>2009-05-19T07:59:36Z</time>
      </trkpt>
      <trkpt lat="42.93523" lon="0.69432">
        <ele>843.6940918</ele>
        <time>2009-05-19T07:59:53Z</time>
      </trkpt>
      <trkpt lat="42.93532" lon="0.69421">
        <ele>849.4621582</ele>
        <time>2009-05-19T08:00:09Z</time>
      </trkpt>
      <trkpt lat="42.93545" lon="0.69414">
        <ele>851.8654785</ele>
        <time>2009-05-19T08:00:25Z</time>
      </trkpt>
      <trkpt lat="42.93557" lon="0.69406">
        <ele>852.8266602</ele>
        <time>2009-05-19T08:00:40Z</time>
      </trkpt>
      <trkpt lat="42.93568" lon="0.69401">
        <ele>853.7880859</ele>
        <time>2009-05-19T08:00:55Z</time>
      </trkpt>
      <trkpt lat="42.93583" lon="0.69392">
        <ele>856.1911621</ele>
        <time>2009-05-19T08:01:14Z</time>
      </trkpt>
      <trkpt lat="42.93596" lon="0.69384">
        <ele>855.7106934</ele>
        <time>2009-05-19T08:01:29Z</time>
      </trkpt>
      <trkpt lat="42.93607" lon="0.69381">
        <ele>853.7880859</ele>
        <time>2009-05-19T08:01:40Z</time>
      </trkpt>
      <trkpt lat="42.93616" lon="0.69379">
        <ele>853.7880859</ele>
        <time>2009-05-19T08:01:51Z</time>
      </trkpt>
      <trkpt lat="42.93623" lon="0.69373">
        <ele>858.1140137</ele>
        <time>2009-05-19T08:02:03Z</time>
      </trkpt>
      <trkpt lat="42.93635" lon="0.69366">
        <ele>864.3625488</ele>
        <time>2009-05-19T08:02:21Z</time>
      </trkpt>
      <trkpt lat="42.93648" lon="0.69363">
        <ele>866.7658691</ele>
        <time>2009-05-19T08:02:34Z</time>
      </trkpt>
      <trkpt lat="42.93664" lon="0.69359">
        <ele>867.7270508</ele>
        <time>2009-05-19T08:02:52Z</time>
      </trkpt>
      <trkpt lat="42.9368" lon="0.69356">
        <ele>869.1691895</ele>
        <time>2009-05-19T08:03:10Z</time>
      </trkpt>
      <trkpt lat="42.93693" lon="0.69354">
        <ele>866.2851563</ele>
        <time>2009-05-19T08:03:25Z</time>
      </trkpt>
      <trkpt lat="42.93704" lon="0.6935">
        <ele>873.0144043</ele>
        <time>2009-05-19T08:03:41Z</time>
      </trkpt>
      <trkpt lat="42.93719" lon="0.69347">
        <ele>874.9370117</ele>
        <time>2009-05-19T08:03:58Z</time>
      </trkpt>
      <trkpt lat="42.93734" lon="0.69341">
        <ele>878.3017578</ele>
        <time>2009-05-19T08:04:19Z</time>
      </trkpt>
      <trkpt lat="42.93748" lon="0.69335">
        <ele>880.7050781</ele>
        <time>2009-05-19T08:04:36Z</time>
      </trkpt>
      <trkpt lat="42.93756" lon="0.69332">
        <ele>878.7824707</ele>
        <time>2009-05-19T08:04:54Z</time>
      </trkpt>
      <trkpt lat="42.93768" lon="0.69332">
        <ele>882.6276855</ele>
        <time>2009-05-19T08:05:11Z</time>
      </trkpt>
      <trkpt lat="42.93782" lon="0.69337">
        <ele>882.1469727</ele>
        <time>2009-05-19T08:05:28Z</time>
      </trkpt>
      <trkpt lat="42.93795" lon="0.69343">
        <ele>885.0310059</ele>
        <time>2009-05-19T08:05:45Z</time>
      </trkpt>
      <trkpt lat="42.93809" lon="0.69355">
        <ele>896.0861816</ele>
        <time>2009-05-19T08:06:07Z</time>
      </trkpt>
      <trkpt lat="42.93817" lon="0.69359">
        <ele>901.8540039</ele>
        <time>2009-05-19T08:06:22Z</time>
      </trkpt>
      <trkpt lat="42.93825" lon="0.69356">
        <ele>909.5446777</ele>
        <time>2009-05-19T08:06:37Z</time>
      </trkpt>
      <trkpt lat="42.93834" lon="0.69352">
        <ele>912.9091797</ele>
        <time>2009-05-19T08:06:50Z</time>
      </trkpt>
      <trkpt lat="42.93846" lon="0.69354">
        <ele>904.2573242</ele>
        <time>2009-05-19T08:07:07Z</time>
      </trkpt>
      <trkpt lat="42.93861" lon="0.69352">
        <ele>899.9313965</ele>
        <time>2009-05-19T08:07:21Z</time>
      </trkpt>
      <trkpt lat="42.93872" lon="0.6935">
        <ele>904.737793</ele>
        <time>2009-05-19T08:07:37Z</time>
      </trkpt>
      <trkpt lat="42.9389" lon="0.69352">
        <ele>904.2573242</ele>
        <time>2009-05-19T08:07:54Z</time>
      </trkpt>
      <trkpt lat="42.93904" lon="0.69353">
        <ele>910.9865723</ele>
        <time>2009-05-19T08:08:12Z</time>
      </trkpt>
      <trkpt lat="42.93916" lon="0.69356">
        <ele>914.3510742</ele>
        <time>2009-05-19T08:08:26Z</time>
      </trkpt>
      <trkpt lat="42.93929" lon="0.69356">
        <ele>919.6384277</ele>
        <time>2009-05-19T08:08:42Z</time>
      </trkpt>
      <trkpt lat="42.93937" lon="0.69354">
        <ele>920.1188965</ele>
        <time>2009-05-19T08:08:58Z</time>
      </trkpt>
      <trkpt lat="42.93945" lon="0.6935">
        <ele>922.0415039</ele>
        <time>2009-05-19T08:09:12Z</time>
      </trkpt>
      <trkpt lat="42.93955" lon="0.69349">
        <ele>919.1577148</ele>
        <time>2009-05-19T08:09:26Z</time>
      </trkpt>
      <trkpt lat="42.93968" lon="0.69348">
        <ele>923.0029297</ele>
        <time>2009-05-19T08:09:42Z</time>
      </trkpt>
      <trkpt lat="42.93977" lon="0.69344">
        <ele>923.0029297</ele>
        <time>2009-05-19T08:09:56Z</time>
      </trkpt>
      <trkpt lat="42.93981" lon="0.6935">
        <ele>929.2514648</ele>
        <time>2009-05-19T08:10:10Z</time>
      </trkpt>
      <trkpt lat="42.93977" lon="0.69359">
        <ele>932.6162109</ele>
        <time>2009-05-19T08:10:28Z</time>
      </trkpt>
      <trkpt lat="42.93968" lon="0.69369">
        <ele>932.135498</ele>
        <time>2009-05-19T08:10:45Z</time>
      </trkpt>
      <trkpt lat="42.93962" lon="0.69388">
        <ele>929.2514648</ele>
        <time>2009-05-19T08:11:01Z</time>
      </trkpt>
      <trkpt lat="42.93956" lon="0.69391">
        <ele>939.8259277</ele>
        <time>2009-05-19T08:11:13Z</time>
      </trkpt>
      <trkpt lat="42.93946" lon="0.69397">
        <ele>940.3068848</ele>
        <time>2009-05-19T08:11:25Z</time>
      </trkpt>
      <trkpt lat="42.93936" lon="0.69401">
        <ele>942.2294922</ele>
        <time>2009-05-19T08:11:39Z</time>
      </trkpt>
      <trkpt lat="42.93924" lon="0.69412">
        <ele>933.5773926</ele>
        <time>2009-05-19T08:11:55Z</time>
      </trkpt>
      <trkpt lat="42.93913" lon="0.69421">
        <ele>932.135498</ele>
        <time>2009-05-19T08:12:09Z</time>
      </trkpt>
      <trkpt lat="42.93902" lon="0.69428">
        <ele>935.0195313</ele>
        <time>2009-05-19T08:12:23Z</time>
      </trkpt>
      <trkpt lat="42.93897" lon="0.69438">
        <ele>949.439209</ele>
        <time>2009-05-19T08:12:38Z</time>
      </trkpt>
      <trkpt lat="42.93892" lon="0.69449">
        <ele>956.168457</ele>
        <time>2009-05-19T08:12:51Z</time>
      </trkpt>
      <trkpt lat="42.93886" lon="0.69454">
        <ele>954.7263184</ele>
        <time>2009-05-19T08:13:04Z</time>
      </trkpt>
      <trkpt lat="42.93874" lon="0.69449">
        <ele>960.0136719</ele>
        <time>2009-05-19T08:13:16Z</time>
      </trkpt>
      <trkpt lat="42.93858" lon="0.69454">
        <ele>951.3618164</ele>
        <time>2009-05-19T08:13:32Z</time>
      </trkpt>
      <trkpt lat="42.9385" lon="0.69456">
        <ele>962.4169922</ele>
        <time>2009-05-19T08:13:44Z</time>
      </trkpt>
      <trkpt lat="42.93841" lon="0.69461">
        <ele>952.322998</ele>
        <time>2009-05-19T08:13:56Z</time>
      </trkpt>
      <trkpt lat="42.93828" lon="0.69467">
        <ele>948.4777832</ele>
        <time>2009-05-19T08:14:11Z</time>
      </trkpt>
      <trkpt lat="42.93819" lon="0.69467">
        <ele>946.5554199</ele>
        <time>2009-05-19T08:14:24Z</time>
      </trkpt>
      <trkpt lat="42.93812" lon="0.69467">
        <ele>948.9584961</ele>
        <time>2009-05-19T08:14:33Z</time>
      </trkpt>
      <trkpt lat="42.93799" lon="0.69464">
        <ele>949.9199219</ele>
        <time>2009-05-19T08:14:46Z</time>
      </trkpt>
      <trkpt lat="42.93789" lon="0.69456">
        <ele>962.8977051</ele>
        <time>2009-05-19T08:15:02Z</time>
      </trkpt>
      <trkpt lat="42.93775" lon="0.69453">
        <ele>967.2236328</ele>
        <time>2009-05-19T08:15:18Z</time>
      </trkpt>
      <trkpt lat="42.93762" lon="0.69461">
        <ele>964.8203125</ele>
        <time>2009-05-19T08:15:33Z</time>
      </trkpt>
      <trkpt lat="42.93751" lon="0.6947">
        <ele>965.3010254</ele>
        <time>2009-05-19T08:15:47Z</time>
      </trkpt>
      <trkpt lat="42.9374" lon="0.69477">
        <ele>961.9365234</ele>
        <time>2009-05-19T08:15:59Z</time>
      </trkpt>
      <trkpt lat="42.93735" lon="0.69485">
        <ele>963.378418</ele>
        <time>2009-05-19T08:16:15Z</time>
      </trkpt>
      <trkpt lat="42.93743" lon="0.69488">
        <ele>963.378418</ele>
        <time>2009-05-19T08:16:33Z</time>
      </trkpt>
      <trkpt lat="42.93756" lon="0.6949">
        <ele>966.262207</ele>
        <time>2009-05-19T08:16:49Z</time>
      </trkpt>
      <trkpt lat="42.93768" lon="0.69492">
        <ele>967.2236328</ele>
        <time>2009-05-19T08:17:04Z</time>
      </trkpt>
      <trkpt lat="42.93782" lon="0.69494">
        <ele>969.6269531</ele>
        <time>2009-05-19T08:17:17Z</time>
      </trkpt>
      <trkpt lat="42.93796" lon="0.69503">
        <ele>979.2399902</ele>
        <time>2009-05-19T08:17:33Z</time>
      </trkpt>
      <trkpt lat="42.93801" lon="0.69508">
        <ele>982.1240234</ele>
        <time>2009-05-19T08:17:40Z</time>
      </trkpt>
      <trkpt lat="42.9381" lon="0.69516">
        <ele>987.4111328</ele>
        <time>2009-05-19T08:17:55Z</time>
      </trkpt>
      <trkpt lat="42.93822" lon="0.69523">
        <ele>1002.7922363</ele>
        <time>2009-05-19T08:18:11Z</time>
      </trkpt>
      <trkpt lat="42.93828" lon="0.69526">
        <ele>1007.1184082</ele>
        <time>2009-05-19T08:18:23Z</time>
      </trkpt>
      <trkpt lat="42.93837" lon="0.69535">
        <ele>998.4663086</ele>
        <time>2009-05-19T08:18:36Z</time>
      </trkpt>
      <trkpt lat="42.93851" lon="0.69545">
        <ele>993.1791992</ele>
        <time>2009-05-19T08:18:52Z</time>
      </trkpt>
      <trkpt lat="42.93863" lon="0.69549">
        <ele>997.9858398</ele>
        <time>2009-05-19T08:19:06Z</time>
      </trkpt>
      <trkpt lat="42.93878" lon="0.69556">
        <ele>1002.7922363</ele>
        <time>2009-05-19T08:19:23Z</time>
      </trkpt>
      <trkpt lat="42.93878" lon="0.69557">
        <ele>1002.7922363</ele>
        <time>2009-05-19T08:19:24Z</time>
      </trkpt>
      <trkpt lat="42.93889" lon="0.6956">
        <ele>1006.6376953</ele>
        <time>2009-05-19T08:19:39Z</time>
      </trkpt>
      <trkpt lat="42.93891" lon="0.69561">
        <ele>1011.4443359</ele>
        <time>2009-05-19T08:19:46Z</time>
      </trkpt>
      <trkpt lat="42.9389" lon="0.69557">
        <ele>1022.4995117</ele>
        <time>2009-05-19T08:19:52Z</time>
      </trkpt>
      <trkpt lat="42.93882" lon="0.69561">
        <ele>1022.4995117</ele>
        <time>2009-05-19T08:20:04Z</time>
      </trkpt>
      <trkpt lat="42.93871" lon="0.69564">
        <ele>1030.6706543</ele>
        <time>2009-05-19T08:20:21Z</time>
      </trkpt>
      <trkpt lat="42.93856" lon="0.69567">
        <ele>1029.2285156</ele>
        <time>2009-05-19T08:20:40Z</time>
      </trkpt>
      <trkpt lat="42.93846" lon="0.69571">
        <ele>1022.9802246</ele>
        <time>2009-05-19T08:20:53Z</time>
      </trkpt>
      <trkpt lat="42.93838" lon="0.69579">
        <ele>1010.963623</ele>
        <time>2009-05-19T08:21:01Z</time>
      </trkpt>
      <trkpt lat="42.93824" lon="0.69575">
        <ele>1017.692627</ele>
        <time>2009-05-19T08:21:15Z</time>
      </trkpt>
      <trkpt lat="42.93808" lon="0.69575">
        <ele>1020.0961914</ele>
        <time>2009-05-19T08:21:33Z</time>
      </trkpt>
      <trkpt lat="42.93793" lon="0.69581">
        <ele>1007.1184082</ele>
        <time>2009-05-19T08:21:51Z</time>
      </trkpt>
      <trkpt lat="42.93776" lon="0.69581">
        <ele>1008.5603027</ele>
        <time>2009-05-19T08:22:08Z</time>
      </trkpt>
      <trkpt lat="42.93787" lon="0.69588">
        <ele>1011.4443359</ele>
        <time>2009-05-19T08:22:24Z</time>
      </trkpt>
      <trkpt lat="42.93798" lon="0.69596">
        <ele>1017.2121582</ele>
        <time>2009-05-19T08:22:42Z</time>
      </trkpt>
      <trkpt lat="42.93812" lon="0.69603">
        <ele>1017.2121582</ele>
        <time>2009-05-19T08:23:02Z</time>
      </trkpt>
      <trkpt lat="42.93827" lon="0.69613">
        <ele>1022.9802246</ele>
        <time>2009-05-19T08:23:21Z</time>
      </trkpt>
      <trkpt lat="42.93835" lon="0.69617">
        <ele>1028.267334</ele>
        <time>2009-05-19T08:23:32Z</time>
      </trkpt>
      <trkpt lat="42.93841" lon="0.69618">
        <ele>1032.5932617</ele>
        <time>2009-05-19T08:23:41Z</time>
      </trkpt>
      <trkpt lat="42.93848" lon="0.69619">
        <ele>1040.2839355</ele>
        <time>2009-05-19T08:23:51Z</time>
      </trkpt>
      <trkpt lat="42.93858" lon="0.69626">
        <ele>1037.3999023</ele>
        <time>2009-05-19T08:24:04Z</time>
      </trkpt>
      <trkpt lat="42.93868" lon="0.69632">
        <ele>1035.9577637</ele>
        <time>2009-05-19T08:24:19Z</time>
      </trkpt>
      <trkpt lat="42.93875" lon="0.69642">
        <ele>1024.4221191</ele>
        <time>2009-05-19T08:24:32Z</time>
      </trkpt>
      <trkpt lat="42.93883" lon="0.69646">
        <ele>1021.0576172</ele>
        <time>2009-05-19T08:24:42Z</time>
      </trkpt>
      <trkpt lat="42.93893" lon="0.69649">
        <ele>1022.4995117</ele>
        <time>2009-05-19T08:24:56Z</time>
      </trkpt>
      <trkpt lat="42.93898" lon="0.69651">
        <ele>1026.8254395</ele>
        <time>2009-05-19T08:25:06Z</time>
      </trkpt>
      <trkpt lat="42.93896" lon="0.69642">
        <ele>1063.8359375</ele>
        <time>2009-05-19T08:25:18Z</time>
      </trkpt>
      <trkpt lat="42.93887" lon="0.69647">
        <ele>1072.4880371</ele>
        <time>2009-05-19T08:25:34Z</time>
      </trkpt>
      <trkpt lat="42.93879" lon="0.69652">
        <ele>1065.7587891</ele>
        <time>2009-05-19T08:25:47Z</time>
      </trkpt>
      <trkpt lat="42.93869" lon="0.69657">
        <ele>1059.5102539</ele>
        <time>2009-05-19T08:26:00Z</time>
      </trkpt>
      <trkpt lat="42.93855" lon="0.69662">
        <ele>1045.5710449</ele>
        <time>2009-05-19T08:26:17Z</time>
      </trkpt>
      <trkpt lat="42.93843" lon="0.69661">
        <ele>1048.9355469</ele>
        <time>2009-05-19T08:26:32Z</time>
      </trkpt>
      <trkpt lat="42.93827" lon="0.6966">
        <ele>1053.7424316</ele>
        <time>2009-05-19T08:26:47Z</time>
      </trkpt>
      <trkpt lat="42.93817" lon="0.6966">
        <ele>1060.4714355</ele>
        <time>2009-05-19T08:27:00Z</time>
      </trkpt>
      <trkpt lat="42.93802" lon="0.69663">
        <ele>1057.1069336</ele>
        <time>2009-05-19T08:27:14Z</time>
      </trkpt>
      <trkpt lat="42.93798" lon="0.69678">
        <ele>1058.5488281</ele>
        <time>2009-05-19T08:27:30Z</time>
      </trkpt>
      <trkpt lat="42.93803" lon="0.69697">
        <ele>1056.6262207</ele>
        <time>2009-05-19T08:27:49Z</time>
      </trkpt>
      <trkpt lat="42.93813" lon="0.69706">
        <ele>1056.1455078</ele>
        <time>2009-05-19T08:28:06Z</time>
      </trkpt>
      <trkpt lat="42.93824" lon="0.69708">
        <ele>1054.7036133</ele>
        <time>2009-05-19T08:28:21Z</time>
      </trkpt>
      <trkpt lat="42.93834" lon="0.69706">
        <ele>1055.6650391</ele>
        <time>2009-05-19T08:28:36Z</time>
      </trkpt>
      <trkpt lat="42.93835" lon="0.69706">
        <ele>1058.0683594</ele>
        <time>2009-05-19T08:28:55Z</time>
      </trkpt>
      <trkpt lat="42.93837" lon="0.69704">
        <ele>1056.6262207</ele>
        <time>2009-05-19T08:29:13Z</time>
      </trkpt>
      <trkpt lat="42.9384" lon="0.69704">
        <ele>1059.029541</ele>
        <time>2009-05-19T08:29:48Z</time>
      </trkpt>
      <trkpt lat="42.93842" lon="0.69708">
        <ele>1052.7810059</ele>
        <time>2009-05-19T08:30:33Z</time>
      </trkpt>
      <trkpt lat="42.93838" lon="0.69712">
        <ele>1054.7036133</ele>
        <time>2009-05-19T08:31:22Z</time>
      </trkpt>
      <trkpt lat="42.93841" lon="0.69705">
        <ele>1055.1843262</ele>
        <time>2009-05-19T08:32:18Z</time>
      </trkpt>
      <trkpt lat="42.93837" lon="0.69709">
        <ele>1055.1843262</ele>
        <time>2009-05-19T08:32:41Z</time>
      </trkpt>
      <trkpt lat="42.93843" lon="0.69707">
        <ele>1053.2617188</ele>
        <time>2009-05-19T08:33:00Z</time>
      </trkpt>
      <trkpt lat="42.93842" lon="0.69708">
        <ele>1055.1843262</ele>
        <time>2009-05-19T08:33:48Z</time>
      </trkpt>
      <trkpt lat="42.93839" lon="0.69709">
        <ele>1057.1069336</ele>
        <time>2009-05-19T08:34:31Z</time>
      </trkpt>
      <trkpt lat="42.9384" lon="0.69708">
        <ele>1056.6262207</ele>
        <time>2009-05-19T08:34:59Z</time>
      </trkpt>
      <trkpt lat="42.93838" lon="0.69708">
        <ele>1058.5488281</ele>
        <time>2009-05-19T08:35:24Z</time>
      </trkpt>
      <trkpt lat="42.93838" lon="0.69708">
        <ele>1057.5876465</ele>
        <time>2009-05-19T08:35:39Z</time>
      </trkpt>
      <trkpt lat="42.9384" lon="0.69708">
        <ele>1056.1455078</ele>
        <time>2009-05-19T08:36:05Z</time>
      </trkpt>
      <trkpt lat="42.93844" lon="0.69709">
        <ele>1055.6650391</ele>
        <time>2009-05-19T08:36:44Z</time>
      </trkpt>
      <trkpt lat="42.93851" lon="0.69709">
        <ele>1058.5488281</ele>
        <time>2009-05-19T08:36:57Z</time>
      </trkpt>
      <trkpt lat="42.93861" lon="0.6971">
        <ele>1060.4714355</ele>
        <time>2009-05-19T08:37:11Z</time>
      </trkpt>
      <trkpt lat="42.93872" lon="0.69713">
        <ele>1061.9135742</ele>
        <time>2009-05-19T08:37:27Z</time>
      </trkpt>
      <trkpt lat="42.93885" lon="0.69715">
        <ele>1064.7973633</ele>
        <time>2009-05-19T08:37:44Z</time>
      </trkpt>
      <trkpt lat="42.939" lon="0.69722">
        <ele>1067.6811523</ele>
        <time>2009-05-19T08:38:06Z</time>
      </trkpt>
      <trkpt lat="42.93912" lon="0.69724">
        <ele>1069.1235352</ele>
        <time>2009-05-19T08:38:23Z</time>
      </trkpt>
      <trkpt lat="42.93923" lon="0.69725">
        <ele>1071.5266113</ele>
        <time>2009-05-19T08:38:40Z</time>
      </trkpt>
      <trkpt lat="42.93936" lon="0.69727">
        <ele>1073.9299316</ele>
        <time>2009-05-19T08:38:59Z</time>
      </trkpt>
      <trkpt lat="42.93947" lon="0.69722">
        <ele>1076.333252</ele>
        <time>2009-05-19T08:39:16Z</time>
      </trkpt>
      <trkpt lat="42.93958" lon="0.69721">
        <ele>1078.7365723</ele>
        <time>2009-05-19T08:39:32Z</time>
      </trkpt>
      <trkpt lat="42.9397" lon="0.6972">
        <ele>1080.6591797</ele>
        <time>2009-05-19T08:39:50Z</time>
      </trkpt>
      <trkpt lat="42.93974" lon="0.69724">
        <ele>1082.5817871</ele>
        <time>2009-05-19T08:40:05Z</time>
      </trkpt>
      <trkpt lat="42.93976" lon="0.69725">
        <ele>1083.5429688</ele>
        <time>2009-05-19T08:40:37Z</time>
      </trkpt>
      <trkpt lat="42.93975" lon="0.69725">
        <ele>1084.9853516</ele>
        <time>2009-05-19T08:41:08Z</time>
      </trkpt>
      <trkpt lat="42.93966" lon="0.69727">
        <ele>1088.3498535</ele>
        <time>2009-05-19T08:41:39Z</time>
      </trkpt>
      <trkpt lat="42.93955" lon="0.69735">
        <ele>1098.4433594</ele>
        <time>2009-05-19T08:41:55Z</time>
      </trkpt>
      <trkpt lat="42.93937" lon="0.69746">
        <ele>1108.0568848</ele>
        <time>2009-05-19T08:42:16Z</time>
      </trkpt>
      <trkpt lat="42.93931" lon="0.69756">
        <ele>1102.2888184</ele>
        <time>2009-05-19T08:42:30Z</time>
      </trkpt>
      <trkpt lat="42.93946" lon="0.69764">
        <ele>1097.9628906</ele>
        <time>2009-05-19T08:42:49Z</time>
      </trkpt>
      <trkpt lat="42.93949" lon="0.69766">
        <ele>1098.4433594</ele>
        <time>2009-05-19T08:42:52Z</time>
      </trkpt>
      <trkpt lat="42.9396" lon="0.69777">
        <ele>1101.3276367</ele>
        <time>2009-05-19T08:43:10Z</time>
      </trkpt>
      <trkpt lat="42.93971" lon="0.69783">
        <ele>1103.730957</ele>
        <time>2009-05-19T08:43:25Z</time>
      </trkpt>
      <trkpt lat="42.93972" lon="0.69784">
        <ele>1103.730957</ele>
        <time>2009-05-19T08:43:27Z</time>
      </trkpt>
      <trkpt lat="42.93984" lon="0.69787">
        <ele>1109.0180664</ele>
        <time>2009-05-19T08:43:42Z</time>
      </trkpt>
      <trkpt lat="42.93994" lon="0.69784">
        <ele>1108.5373535</ele>
        <time>2009-05-19T08:43:55Z</time>
      </trkpt>
      <trkpt lat="42.93996" lon="0.69782">
        <ele>1112.8632813</ele>
        <time>2009-05-19T08:44:08Z</time>
      </trkpt>
      <trkpt lat="42.93985" lon="0.69775">
        <ele>1118.1506348</ele>
        <time>2009-05-19T08:44:22Z</time>
      </trkpt>
      <trkpt lat="42.93989" lon="0.69774">
        <ele>1116.7087402</ele>
        <time>2009-05-19T08:44:35Z</time>
      </trkpt>
      <trkpt lat="42.94" lon="0.69766">
        <ele>1115.2666016</ele>
        <time>2009-05-19T08:44:52Z</time>
      </trkpt>
      <trkpt lat="42.94019" lon="0.69762">
        <ele>1116.2280273</ele>
        <time>2009-05-19T08:45:12Z</time>
      </trkpt>
      <trkpt lat="42.94035" lon="0.69764">
        <ele>1117.6699219</ele>
        <time>2009-05-19T08:45:29Z</time>
      </trkpt>
      <trkpt lat="42.94049" lon="0.69767">
        <ele>1118.6313477</ele>
        <time>2009-05-19T08:45:46Z</time>
      </trkpt>
      <trkpt lat="42.94062" lon="0.69766">
        <ele>1120.5539551</ele>
        <time>2009-05-19T08:46:02Z</time>
      </trkpt>
      <trkpt lat="42.94077" lon="0.69768">
        <ele>1121.9958496</ele>
        <time>2009-05-19T08:46:21Z</time>
      </trkpt>
      <trkpt lat="42.94084" lon="0.69768">
        <ele>1124.3991699</ele>
        <time>2009-05-19T08:46:31Z</time>
      </trkpt>
      <trkpt lat="42.94098" lon="0.69765">
        <ele>1127.2832031</ele>
        <time>2009-05-19T08:46:47Z</time>
      </trkpt>
      <trkpt lat="42.94115" lon="0.69764">
        <ele>1132.5705566</ele>
        <time>2009-05-19T08:47:07Z</time>
      </trkpt>
      <trkpt lat="42.94119" lon="0.69758">
        <ele>1136.8962402</ele>
        <time>2009-05-19T08:47:19Z</time>
      </trkpt>
      <trkpt lat="42.94123" lon="0.69754">
        <ele>1141.222168</ele>
        <time>2009-05-19T08:47:34Z</time>
      </trkpt>
      <trkpt lat="42.94124" lon="0.69748">
        <ele>1143.1447754</ele>
        <time>2009-05-19T08:47:48Z</time>
      </trkpt>
      <trkpt lat="42.94126" lon="0.69742">
        <ele>1146.0288086</ele>
        <time>2009-05-19T08:48:02Z</time>
      </trkpt>
      <trkpt lat="42.9414" lon="0.69741">
        <ele>1146.5095215</ele>
        <time>2009-05-19T08:48:22Z</time>
      </trkpt>
      <trkpt lat="42.94151" lon="0.69744">
        <ele>1148.9128418</ele>
        <time>2009-05-19T08:48:37Z</time>
      </trkpt>
      <trkpt lat="42.9416" lon="0.69751">
        <ele>1149.8742676</ele>
        <time>2009-05-19T08:48:53Z</time>
      </trkpt>
      <trkpt lat="42.94169" lon="0.69765">
        <ele>1154.6806641</ele>
        <time>2009-05-19T08:49:11Z</time>
      </trkpt>
      <trkpt lat="42.94179" lon="0.69775">
        <ele>1158.0454102</ele>
        <time>2009-05-19T08:49:28Z</time>
      </trkpt>
      <trkpt lat="42.94195" lon="0.69778">
        <ele>1159.4873047</ele>
        <time>2009-05-19T08:49:45Z</time>
      </trkpt>
      <trkpt lat="42.94196" lon="0.69778">
        <ele>1159.9677734</ele>
        <time>2009-05-19T08:49:46Z</time>
      </trkpt>
      <trkpt lat="42.94204" lon="0.69786">
        <ele>1165.736084</ele>
        <time>2009-05-19T08:50:00Z</time>
      </trkpt>
      <trkpt lat="42.94216" lon="0.6979">
        <ele>1167.6584473</ele>
        <time>2009-05-19T08:50:13Z</time>
      </trkpt>
      <trkpt lat="42.94209" lon="0.69785">
        <ele>1172.4650879</ele>
        <time>2009-05-19T08:50:29Z</time>
      </trkpt>
      <trkpt lat="42.94199" lon="0.69773">
        <ele>1178.713623</ele>
        <time>2009-05-19T08:50:47Z</time>
      </trkpt>
      <trkpt lat="42.94197" lon="0.69762">
        <ele>1175.8295898</ele>
        <time>2009-05-19T08:51:02Z</time>
      </trkpt>
      <trkpt lat="42.94207" lon="0.69762">
        <ele>1177.7521973</ele>
        <time>2009-05-19T08:51:20Z</time>
      </trkpt>
      <trkpt lat="42.94207" lon="0.69763">
        <ele>1177.7521973</ele>
        <time>2009-05-19T08:51:22Z</time>
      </trkpt>
      <trkpt lat="42.94213" lon="0.69764">
        <ele>1175.8295898</ele>
        <time>2009-05-19T08:51:36Z</time>
      </trkpt>
      <trkpt lat="42.94204" lon="0.69754">
        <ele>1182.559082</ele>
        <time>2009-05-19T08:51:55Z</time>
      </trkpt>
      <trkpt lat="42.94211" lon="0.69755">
        <ele>1185.923584</ele>
        <time>2009-05-19T08:52:09Z</time>
      </trkpt>
      <trkpt lat="42.94217" lon="0.69762">
        <ele>1188.8076172</ele>
        <time>2009-05-19T08:52:25Z</time>
      </trkpt>
      <trkpt lat="42.94226" lon="0.69765">
        <ele>1186.8847656</ele>
        <time>2009-05-19T08:52:41Z</time>
      </trkpt>
      <trkpt lat="42.94236" lon="0.69769">
        <ele>1186.8847656</ele>
        <time>2009-05-19T08:52:59Z</time>
      </trkpt>
      <trkpt lat="42.94244" lon="0.69775">
        <ele>1188.3269043</ele>
        <time>2009-05-19T08:53:15Z</time>
      </trkpt>
      <trkpt lat="42.94241" lon="0.69767">
        <ele>1191.2106934</ele>
        <time>2009-05-19T08:53:30Z</time>
      </trkpt>
      <trkpt lat="42.94234" lon="0.69761">
        <ele>1194.5751953</ele>
        <time>2009-05-19T08:53:46Z</time>
      </trkpt>
      <trkpt lat="42.94231" lon="0.69754">
        <ele>1194.5751953</ele>
        <time>2009-05-19T08:54:02Z</time>
      </trkpt>
      <trkpt lat="42.94241" lon="0.69755">
        <ele>1195.5366211</ele>
        <time>2009-05-19T08:54:20Z</time>
      </trkpt>
      <trkpt lat="42.94231" lon="0.69749">
        <ele>1202.2658691</ele>
        <time>2009-05-19T08:54:37Z</time>
      </trkpt>
      <trkpt lat="42.94224" lon="0.69737">
        <ele>1203.2272949</ele>
        <time>2009-05-19T08:54:53Z</time>
      </trkpt>
      <trkpt lat="42.94218" lon="0.69731">
        <ele>1204.1887207</ele>
        <time>2009-05-19T08:55:07Z</time>
      </trkpt>
      <trkpt lat="42.94215" lon="0.69719">
        <ele>1201.7854004</ele>
        <time>2009-05-19T08:55:20Z</time>
      </trkpt>
      <trkpt lat="42.94218" lon="0.69709">
        <ele>1200.3435059</ele>
        <time>2009-05-19T08:55:33Z</time>
      </trkpt>
      <trkpt lat="42.94221" lon="0.69705">
        <ele>1200.3435059</ele>
        <time>2009-05-19T08:55:39Z</time>
      </trkpt>
      <trkpt lat="42.94229" lon="0.69695">
        <ele>1198.9013672</ele>
        <time>2009-05-19T08:55:52Z</time>
      </trkpt>
      <trkpt lat="42.94232" lon="0.69693">
        <ele>1198.9013672</ele>
        <time>2009-05-19T08:55:55Z</time>
      </trkpt>
      <trkpt lat="42.94241" lon="0.69675">
        <ele>1200.8239746</ele>
        <time>2009-05-19T08:56:14Z</time>
      </trkpt>
      <trkpt lat="42.94247" lon="0.69661">
        <ele>1202.746582</ele>
        <time>2009-05-19T08:56:29Z</time>
      </trkpt>
      <trkpt lat="42.94251" lon="0.69649">
        <ele>1208.0339355</ele>
        <time>2009-05-19T08:56:45Z</time>
      </trkpt>
      <trkpt lat="42.94248" lon="0.69637">
        <ele>1215.2438965</ele>
        <time>2009-05-19T08:56:58Z</time>
      </trkpt>
      <trkpt lat="42.94251" lon="0.69627">
        <ele>1216.685791</ele>
        <time>2009-05-19T08:57:13Z</time>
      </trkpt>
      <trkpt lat="42.94259" lon="0.6964">
        <ele>1221.4921875</ele>
        <time>2009-05-19T08:57:32Z</time>
      </trkpt>
      <trkpt lat="42.9426" lon="0.69658">
        <ele>1229.1828613</ele>
        <time>2009-05-19T08:57:52Z</time>
      </trkpt>
      <trkpt lat="42.9426" lon="0.69672">
        <ele>1233.5087891</ele>
        <time>2009-05-19T08:58:06Z</time>
      </trkpt>
      <trkpt lat="42.94264" lon="0.69676">
        <ele>1228.7023926</ele>
        <time>2009-05-19T08:58:21Z</time>
      </trkpt>
      <trkpt lat="42.94267" lon="0.69665">
        <ele>1228.2216797</ele>
        <time>2009-05-19T08:58:37Z</time>
      </trkpt>
      <trkpt lat="42.94274" lon="0.69657">
        <ele>1230.1442871</ele>
        <time>2009-05-19T08:58:52Z</time>
      </trkpt>
      <trkpt lat="42.94276" lon="0.69669">
        <ele>1236.873291</ele>
        <time>2009-05-19T08:59:07Z</time>
      </trkpt>
      <trkpt lat="42.94274" lon="0.6968">
        <ele>1241.6799316</ele>
        <time>2009-05-19T08:59:19Z</time>
      </trkpt>
      <trkpt lat="42.94273" lon="0.69699">
        <ele>1241.6799316</ele>
        <time>2009-05-19T08:59:37Z</time>
      </trkpt>
      <trkpt lat="42.94277" lon="0.69711">
        <ele>1240.2380371</ele>
        <time>2009-05-19T08:59:51Z</time>
      </trkpt>
      <trkpt lat="42.9428" lon="0.6971">
        <ele>1239.7573242</ele>
        <time>2009-05-19T08:59:59Z</time>
      </trkpt>
      <trkpt lat="42.9428" lon="0.697">
        <ele>1237.8347168</ele>
        <time>2009-05-19T09:00:13Z</time>
      </trkpt>
      <trkpt lat="42.94287" lon="0.69685">
        <ele>1238.7961426</ele>
        <time>2009-05-19T09:00:30Z</time>
      </trkpt>
      <trkpt lat="42.94293" lon="0.69671">
        <ele>1242.6413574</ele>
        <time>2009-05-19T09:00:48Z</time>
      </trkpt>
      <trkpt lat="42.94297" lon="0.69656">
        <ele>1244.5639648</ele>
        <time>2009-05-19T09:01:05Z</time>
      </trkpt>
      <trkpt lat="42.943" lon="0.69642">
        <ele>1246.0061035</ele>
        <time>2009-05-19T09:01:19Z</time>
      </trkpt>
      <trkpt lat="42.94306" lon="0.69626">
        <ele>1244.5639648</ele>
        <time>2009-05-19T09:01:34Z</time>
      </trkpt>
      <trkpt lat="42.9432" lon="0.69614">
        <ele>1245.5253906</ele>
        <time>2009-05-19T09:01:52Z</time>
      </trkpt>
      <trkpt lat="42.94332" lon="0.69602">
        <ele>1247.9287109</ele>
        <time>2009-05-19T09:02:12Z</time>
      </trkpt>
      <trkpt lat="42.94341" lon="0.6959">
        <ele>1248.4091797</ele>
        <time>2009-05-19T09:02:28Z</time>
      </trkpt>
      <trkpt lat="42.94349" lon="0.69578">
        <ele>1249.3706055</ele>
        <time>2009-05-19T09:02:47Z</time>
      </trkpt>
      <trkpt lat="42.94359" lon="0.69561">
        <ele>1251.2932129</ele>
        <time>2009-05-19T09:03:06Z</time>
      </trkpt>
      <trkpt lat="42.9436" lon="0.6956">
        <ele>1251.2932129</ele>
        <time>2009-05-19T09:03:07Z</time>
      </trkpt>
      <trkpt lat="42.94372" lon="0.69543">
        <ele>1253.2158203</ele>
        <time>2009-05-19T09:03:27Z</time>
      </trkpt>
      <trkpt lat="42.9438" lon="0.69533">
        <ele>1256.0996094</ele>
        <time>2009-05-19T09:03:45Z</time>
      </trkpt>
      <trkpt lat="42.94386" lon="0.69524">
        <ele>1260.9064941</ele>
        <time>2009-05-19T09:04:03Z</time>
      </trkpt>
      <trkpt lat="42.94395" lon="0.69514">
        <ele>1263.3098145</ele>
        <time>2009-05-19T09:04:21Z</time>
      </trkpt>
      <trkpt lat="42.94401" lon="0.69502">
        <ele>1264.751709</ele>
        <time>2009-05-19T09:04:40Z</time>
      </trkpt>
      <trkpt lat="42.944" lon="0.69499">
        <ele>1270.0388184</ele>
        <time>2009-05-19T09:05:12Z</time>
      </trkpt>
      <trkpt lat="42.94403" lon="0.69495">
        <ele>1266.1936035</ele>
        <time>2009-05-19T09:05:39Z</time>
      </trkpt>
      <trkpt lat="42.94408" lon="0.69488">
        <ele>1267.1550293</ele>
        <time>2009-05-19T09:06:06Z</time>
      </trkpt>
      <trkpt lat="42.94413" lon="0.69487">
        <ele>1269.0776367</ele>
        <time>2009-05-19T09:06:18Z</time>
      </trkpt>
      <trkpt lat="42.94416" lon="0.69485">
        <ele>1271.0002441</ele>
        <time>2009-05-19T09:06:25Z</time>
      </trkpt>
      <trkpt lat="42.9442" lon="0.69484">
        <ele>1271.4807129</ele>
        <time>2009-05-19T09:06:31Z</time>
      </trkpt>
      <trkpt lat="42.94424" lon="0.69461">
        <ele>1275.3259277</ele>
        <time>2009-05-19T09:06:49Z</time>
      </trkpt>
      <trkpt lat="42.94418" lon="0.69447">
        <ele>1280.6135254</ele>
        <time>2009-05-19T09:07:05Z</time>
      </trkpt>
      <trkpt lat="42.94413" lon="0.69438">
        <ele>1284.4587402</ele>
        <time>2009-05-19T09:07:15Z</time>
      </trkpt>
      <trkpt lat="42.94415" lon="0.69419">
        <ele>1287.3425293</ele>
        <time>2009-05-19T09:07:34Z</time>
      </trkpt>
      <trkpt lat="42.9442" lon="0.69414">
        <ele>1288.3039551</ele>
        <time>2009-05-19T09:07:50Z</time>
      </trkpt>
      <trkpt lat="42.94426" lon="0.69404">
        <ele>1289.7458496</ele>
        <time>2009-05-19T09:08:06Z</time>
      </trkpt>
      <trkpt lat="42.94433" lon="0.69388">
        <ele>1291.668457</ele>
        <time>2009-05-19T09:08:24Z</time>
      </trkpt>
      <trkpt lat="42.94437" lon="0.69377">
        <ele>1295.0332031</ele>
        <time>2009-05-19T09:08:41Z</time>
      </trkpt>
      <trkpt lat="42.94439" lon="0.69373">
        <ele>1294.5524902</ele>
        <time>2009-05-19T09:09:12Z</time>
      </trkpt>
      <trkpt lat="42.9444" lon="0.69364">
        <ele>1298.878418</ele>
        <time>2009-05-19T09:09:32Z</time>
      </trkpt>
      <trkpt lat="42.94442" lon="0.69372">
        <ele>1305.607666</ele>
        <time>2009-05-19T09:09:48Z</time>
      </trkpt>
      <trkpt lat="42.94444" lon="0.69387">
        <ele>1309.453125</ele>
        <time>2009-05-19T09:10:03Z</time>
      </trkpt>
      <trkpt lat="42.94449" lon="0.69382">
        <ele>1311.3757324</ele>
        <time>2009-05-19T09:10:17Z</time>
      </trkpt>
      <trkpt lat="42.94456" lon="0.69371">
        <ele>1311.8564453</ele>
        <time>2009-05-19T09:10:35Z</time>
      </trkpt>
      <trkpt lat="42.94458" lon="0.69366">
        <ele>1315.7016602</ele>
        <time>2009-05-19T09:10:47Z</time>
      </trkpt>
      <trkpt lat="42.94462" lon="0.69359">
        <ele>1316.1821289</ele>
        <time>2009-05-19T09:11:03Z</time>
      </trkpt>
      <trkpt lat="42.94465" lon="0.69354">
        <ele>1318.1047363</ele>
        <time>2009-05-19T09:11:18Z</time>
      </trkpt>
      <trkpt lat="42.94466" lon="0.6935">
        <ele>1321.4692383</ele>
        <time>2009-05-19T09:11:32Z</time>
      </trkpt>
      <trkpt lat="42.94468" lon="0.69353">
        <ele>1324.3535156</ele>
        <time>2009-05-19T09:11:44Z</time>
      </trkpt>
      <trkpt lat="42.94472" lon="0.69364">
        <ele>1328.6794434</ele>
        <time>2009-05-19T09:12:02Z</time>
      </trkpt>
      <trkpt lat="42.94475" lon="0.6936">
        <ele>1332.0439453</ele>
        <time>2009-05-19T09:12:17Z</time>
      </trkpt>
      <trkpt lat="42.94475" lon="0.69352">
        <ele>1334.4472656</ele>
        <time>2009-05-19T09:12:35Z</time>
      </trkpt>
      <trkpt lat="42.94472" lon="0.69342">
        <ele>1339.2536621</ele>
        <time>2009-05-19T09:12:49Z</time>
      </trkpt>
      <trkpt lat="42.94474" lon="0.6934">
        <ele>1341.1765137</ele>
        <time>2009-05-19T09:13:03Z</time>
      </trkpt>
      <trkpt lat="42.94476" lon="0.69337">
        <ele>1343.579834</ele>
        <time>2009-05-19T09:13:16Z</time>
      </trkpt>
      <trkpt lat="42.9448" lon="0.69332">
        <ele>1344.0605469</ele>
        <time>2009-05-19T09:13:32Z</time>
      </trkpt>
      <trkpt lat="42.94486" lon="0.6933">
        <ele>1337.8117676</ele>
        <time>2009-05-19T09:13:53Z</time>
      </trkpt>
      <trkpt lat="42.94483" lon="0.69319">
        <ele>1343.579834</ele>
        <time>2009-05-19T09:14:08Z</time>
      </trkpt>
      <trkpt lat="42.94484" lon="0.69306">
        <ele>1345.9831543</ele>
        <time>2009-05-19T09:14:26Z</time>
      </trkpt>
      <trkpt lat="42.94483" lon="0.69304">
        <ele>1350.7895508</ele>
        <time>2009-05-19T09:14:42Z</time>
      </trkpt>
      <trkpt lat="42.94488" lon="0.69304">
        <ele>1351.2702637</ele>
        <time>2009-05-19T09:14:54Z</time>
      </trkpt>
      <trkpt lat="42.94493" lon="0.69313">
        <ele>1356.0769043</ele>
        <time>2009-05-19T09:15:12Z</time>
      </trkpt>
      <trkpt lat="42.94497" lon="0.69319">
        <ele>1359.4416504</ele>
        <time>2009-05-19T09:15:26Z</time>
      </trkpt>
      <trkpt lat="42.94504" lon="0.69323">
        <ele>1358.4802246</ele>
        <time>2009-05-19T09:15:43Z</time>
      </trkpt>
      <trkpt lat="42.94501" lon="0.69311">
        <ele>1365.6901855</ele>
        <time>2009-05-19T09:16:04Z</time>
      </trkpt>
      <trkpt lat="42.94501" lon="0.69298">
        <ele>1366.6513672</ele>
        <time>2009-05-19T09:16:19Z</time>
      </trkpt>
      <trkpt lat="42.94499" lon="0.69284">
        <ele>1367.6125488</ele>
        <time>2009-05-19T09:16:36Z</time>
      </trkpt>
      <trkpt lat="42.94496" lon="0.6927">
        <ele>1368.5739746</ele>
        <time>2009-05-19T09:16:52Z</time>
      </trkpt>
      <trkpt lat="42.94493" lon="0.69257">
        <ele>1375.3032227</ele>
        <time>2009-05-19T09:17:11Z</time>
      </trkpt>
      <trkpt lat="42.94489" lon="0.69246">
        <ele>1382.5131836</ele>
        <time>2009-05-19T09:17:30Z</time>
      </trkpt>
      <trkpt lat="42.94496" lon="0.69244">
        <ele>1378.6679688</ele>
        <time>2009-05-19T09:17:44Z</time>
      </trkpt>
      <trkpt lat="42.94503" lon="0.69251">
        <ele>1378.1872559</ele>
        <time>2009-05-19T09:18:02Z</time>
      </trkpt>
      <trkpt lat="42.9451" lon="0.69257">
        <ele>1378.6679688</ele>
        <time>2009-05-19T09:18:20Z</time>
      </trkpt>
      <trkpt lat="42.94506" lon="0.69251">
        <ele>1386.3583984</ele>
        <time>2009-05-19T09:18:37Z</time>
      </trkpt>
      <trkpt lat="42.94506" lon="0.69239">
        <ele>1387.800293</ele>
        <time>2009-05-19T09:18:52Z</time>
      </trkpt>
      <trkpt lat="42.94505" lon="0.69226">
        <ele>1389.2424316</ele>
        <time>2009-05-19T09:19:06Z</time>
      </trkpt>
      <trkpt lat="42.94506" lon="0.69213">
        <ele>1389.2424316</ele>
        <time>2009-05-19T09:19:23Z</time>
      </trkpt>
      <trkpt lat="42.94509" lon="0.69205">
        <ele>1388.7619629</ele>
        <time>2009-05-19T09:19:43Z</time>
      </trkpt>
      <trkpt lat="42.94512" lon="0.6921">
        <ele>1393.0876465</ele>
        <time>2009-05-19T09:19:56Z</time>
      </trkpt>
      <trkpt lat="42.94515" lon="0.69215">
        <ele>1394.529541</ele>
        <time>2009-05-19T09:20:12Z</time>
      </trkpt>
      <trkpt lat="42.94521" lon="0.69223">
        <ele>1387.3195801</ele>
        <time>2009-05-19T09:20:36Z</time>
      </trkpt>
      <trkpt lat="42.9452" lon="0.69226">
        <ele>1396.4523926</ele>
        <time>2009-05-19T09:21:04Z</time>
      </trkpt>
      <trkpt lat="42.94515" lon="0.69226">
        <ele>1401.2587891</ele>
        <time>2009-05-19T09:21:34Z</time>
      </trkpt>
      <trkpt lat="42.94508" lon="0.6923">
        <ele>1413.2753906</ele>
        <time>2009-05-19T09:22:47Z</time>
      </trkpt>
      <trkpt lat="42.94508" lon="0.69225">
        <ele>1413.7558594</ele>
        <time>2009-05-19T09:23:12Z</time>
      </trkpt>
      <trkpt lat="42.94512" lon="0.69229">
        <ele>1404.1430664</ele>
        <time>2009-05-19T09:23:39Z</time>
      </trkpt>
      <trkpt lat="42.94514" lon="0.69223">
        <ele>1398.8554688</ele>
        <time>2009-05-19T09:24:03Z</time>
      </trkpt>
      <trkpt lat="42.94519" lon="0.69226">
        <ele>1399.3361816</ele>
        <time>2009-05-19T09:24:15Z</time>
      </trkpt>
      <trkpt lat="42.94528" lon="0.69236">
        <ele>1399.8168945</ele>
        <time>2009-05-19T09:24:30Z</time>
      </trkpt>
      <trkpt lat="42.94529" lon="0.69232">
        <ele>1400.7780762</ele>
        <time>2009-05-19T09:24:36Z</time>
      </trkpt>
      <trkpt lat="42.94528" lon="0.69224">
        <ele>1401.2587891</ele>
        <time>2009-05-19T09:24:47Z</time>
      </trkpt>
      <trkpt lat="42.9453" lon="0.69211">
        <ele>1401.2587891</ele>
        <time>2009-05-19T09:25:03Z</time>
      </trkpt>
      <trkpt lat="42.94529" lon="0.69194">
        <ele>1403.1813965</ele>
        <time>2009-05-19T09:25:22Z</time>
      </trkpt>
      <trkpt lat="42.94525" lon="0.69178">
        <ele>1402.7006836</ele>
        <time>2009-05-19T09:25:39Z</time>
      </trkpt>
      <trkpt lat="42.94521" lon="0.69172">
        <ele>1406.0654297</ele>
        <time>2009-05-19T09:25:50Z</time>
      </trkpt>
      <trkpt lat="42.94515" lon="0.69163">
        <ele>1409.9106445</ele>
        <time>2009-05-19T09:26:05Z</time>
      </trkpt>
      <trkpt lat="42.94514" lon="0.69157">
        <ele>1411.8334961</ele>
        <time>2009-05-19T09:26:20Z</time>
      </trkpt>
      <trkpt lat="42.94521" lon="0.69159">
        <ele>1415.6787109</ele>
        <time>2009-05-19T09:26:36Z</time>
      </trkpt>
      <trkpt lat="42.94528" lon="0.69161">
        <ele>1418.0817871</ele>
        <time>2009-05-19T09:26:50Z</time>
      </trkpt>
      <trkpt lat="42.94535" lon="0.69165">
        <ele>1420.4853516</ele>
        <time>2009-05-19T09:27:05Z</time>
      </trkpt>
      <trkpt lat="42.94541" lon="0.69173">
        <ele>1422.407959</ele>
        <time>2009-05-19T09:27:24Z</time>
      </trkpt>
      <trkpt lat="42.94546" lon="0.69177">
        <ele>1424.3305664</ele>
        <time>2009-05-19T09:27:41Z</time>
      </trkpt>
      <trkpt lat="42.94547" lon="0.69174">
        <ele>1425.291748</ele>
        <time>2009-05-19T09:27:53Z</time>
      </trkpt>
      <trkpt lat="42.94546" lon="0.69165">
        <ele>1427.2145996</ele>
        <time>2009-05-19T09:28:11Z</time>
      </trkpt>
      <trkpt lat="42.94544" lon="0.69158">
        <ele>1429.1369629</ele>
        <time>2009-05-19T09:28:28Z</time>
      </trkpt>
      <trkpt lat="42.94541" lon="0.69149">
        <ele>1430.5791016</ele>
        <time>2009-05-19T09:28:43Z</time>
      </trkpt>
      <trkpt lat="42.94538" lon="0.69141">
        <ele>1433.9436035</ele>
        <time>2009-05-19T09:28:58Z</time>
      </trkpt>
      <trkpt lat="42.94544" lon="0.69144">
        <ele>1435.385498</ele>
        <time>2009-05-19T09:29:12Z</time>
      </trkpt>
      <trkpt lat="42.94548" lon="0.69143">
        <ele>1438.7504883</ele>
        <time>2009-05-19T09:29:28Z</time>
      </trkpt>
      <trkpt lat="42.94544" lon="0.69138">
        <ele>1441.1535645</ele>
        <time>2009-05-19T09:29:42Z</time>
      </trkpt>
      <trkpt lat="42.9454" lon="0.69132">
        <ele>1443.5568848</ele>
        <time>2009-05-19T09:29:57Z</time>
      </trkpt>
      <trkpt lat="42.94536" lon="0.69123">
        <ele>1445.9602051</ele>
        <time>2009-05-19T09:30:15Z</time>
      </trkpt>
      <trkpt lat="42.94536" lon="0.69116">
        <ele>1448.3632813</ele>
        <time>2009-05-19T09:30:32Z</time>
      </trkpt>
      <trkpt lat="42.94545" lon="0.6912">
        <ele>1450.2861328</ele>
        <time>2009-05-19T09:30:49Z</time>
      </trkpt>
      <trkpt lat="42.94552" lon="0.69122">
        <ele>1451.7280273</ele>
        <time>2009-05-19T09:31:03Z</time>
      </trkpt>
      <trkpt lat="42.94552" lon="0.69119">
        <ele>1454.6120605</ele>
        <time>2009-05-19T09:31:17Z</time>
      </trkpt>
      <trkpt lat="42.94547" lon="0.69113">
        <ele>1457.4960938</ele>
        <time>2009-05-19T09:31:31Z</time>
      </trkpt>
      <trkpt lat="42.94545" lon="0.69108">
        <ele>1459.8991699</ele>
        <time>2009-05-19T09:31:45Z</time>
      </trkpt>
      <trkpt lat="42.94549" lon="0.69106">
        <ele>1461.3413086</ele>
        <time>2009-05-19T09:31:58Z</time>
      </trkpt>
      <trkpt lat="42.9455" lon="0.69107">
        <ele>1461.3413086</ele>
        <time>2009-05-19T09:32:00Z</time>
      </trkpt>
      <trkpt lat="42.94561" lon="0.69117">
        <ele>1464.7058105</ele>
        <time>2009-05-19T09:32:20Z</time>
      </trkpt>
      <trkpt lat="42.94563" lon="0.69113">
        <ele>1466.628418</ele>
        <time>2009-05-19T09:32:37Z</time>
      </trkpt>
      <trkpt lat="42.94564" lon="0.6911">
        <ele>1468.0705566</ele>
        <time>2009-05-19T09:32:55Z</time>
      </trkpt>
      <trkpt lat="42.94565" lon="0.69107">
        <ele>1468.5512695</ele>
        <time>2009-05-19T09:33:15Z</time>
      </trkpt>
      <trkpt lat="42.94566" lon="0.69108">
        <ele>1469.5126953</ele>
        <time>2009-05-19T09:33:28Z</time>
      </trkpt>
      <trkpt lat="42.94566" lon="0.69108">
        <ele>1469.0319824</ele>
        <time>2009-05-19T09:33:42Z</time>
      </trkpt>
      <trkpt lat="42.94567" lon="0.6911">
        <ele>1471.9157715</ele>
        <time>2009-05-19T09:36:28Z</time>
      </trkpt>
      <trkpt lat="42.94563" lon="0.691">
        <ele>1473.8383789</ele>
        <time>2009-05-19T09:37:01Z</time>
      </trkpt>
      <trkpt lat="42.94565" lon="0.691">
        <ele>1468.5512695</ele>
        <time>2009-05-19T09:37:49Z</time>
      </trkpt>
      <trkpt lat="42.94567" lon="0.69109">
        <ele>1467.5895996</ele>
        <time>2009-05-19T09:39:23Z</time>
      </trkpt>
      <trkpt lat="42.94565" lon="0.69105">
        <ele>1465.1865234</ele>
        <time>2009-05-19T09:40:28Z</time>
      </trkpt>
    </trkseg>
  </trk>
</gpx>